sensor_id;sensor_type;location;lat;lon;timestamp;P1;durP1;ratioP1;P2;durP2;ratioP2
21099;SDS011;10708;50.824;4.408;2022-10-15T00:02:04;42.22;;;21.25;;
21099;SDS011;10708;50.824;4.408;2022-10-15T00:07:07;43.25;;;21.33;;
21099;SDS011;10708;50.824;4.408;2022-10-15T00:12:11;45.67;;;21.45;;
21099;SDS011;10708;50.824;4.408;2022-10-15T00:17:13;42.88;;;21.45;;
21099;SDS011;10708;50.824;4.408;2022-10-15T00:22:15;40.35;;;20.75;;
21099;SDS011;10708;50.824;4.408;2022-10-15T00:27:19;42.15;;;20.77;;
21099;SDS011;10708;50.824;4.408;2022-10-15T00:32:21;43.22;;;20.25;;
21099;SDS011;10708;50.824;4.408;2022-10-15T00:37:23;40.40;;;20.73;;
21099;SDS011;10708;50.824;4.408;2022-10-15T00:42:27;40.47;;;19.77;;
21099;SDS011;10708;50.824;4.408;2022-10-15T00:47:33;38.80;;;19.83;;
21099;SDS011;10708;50.824;4.408;2022-10-15T00:52:43;42.78;;;20.55;;
21099;SDS011;10708;50.824;4.408;2022-10-15T00:57:49;35.13;;;18.45;;
21099;SDS011;10708;50.824;4.408;2022-10-15T01:02:52;36.75;;;20.58;;
21099;SDS011;10708;50.824;4.408;2022-10-15T01:07:54;39.70;;;20.15;;
21099;SDS011;10708;50.824;4.408;2022-10-15T01:13:00;40.78;;;19.73;;
21099;SDS011;10708;50.824;4.408;2022-10-15T01:18:13;35.88;;;18.90;;
21099;SDS011;10708;50.824;4.408;2022-10-15T01:23:25;36.03;;;18.73;;
21099;SDS011;10708;50.824;4.408;2022-10-15T01:28:45;40.17;;;18.80;;
21099;SDS011;10708;50.824;4.408;2022-10-15T01:33:57;34.53;;;18.40;;
21099;SDS011;10708;50.824;4.408;2022-10-15T01:39:05;36.22;;;18.30;;
21099;SDS011;10708;50.824;4.408;2022-10-15T01:44:14;39.45;;;18.73;;
21099;SDS011;10708;50.824;4.408;2022-10-15T01:49:23;39.17;;;19.13;;
21099;SDS011;10708;50.824;4.408;2022-10-15T01:54:29;37.38;;;17.80;;
21099;SDS011;10708;50.824;4.408;2022-10-15T01:59:32;44.70;;;18.35;;
21099;SDS011;10708;50.824;4.408;2022-10-15T02:04:36;36.35;;;18.15;;
21099;SDS011;10708;50.824;4.408;2022-10-15T02:09:41;39.75;;;18.33;;
21099;SDS011;10708;50.824;4.408;2022-10-15T02:14:52;39.60;;;18.20;;
21099;SDS011;10708;50.824;4.408;2022-10-15T02:20:05;45.92;;;19.67;;
21099;SDS011;10708;50.824;4.408;2022-10-15T02:25:14;46.45;;;19.45;;
21099;SDS011;10708;50.824;4.408;2022-10-15T02:30:20;40.97;;;17.92;;
21099;SDS011;10708;50.824;4.408;2022-10-15T02:35:24;39.28;;;18.48;;
21099;SDS011;10708;50.824;4.408;2022-10-15T02:40:31;40.65;;;17.85;;
21099;SDS011;10708;50.824;4.408;2022-10-15T02:45:36;35.05;;;16.90;;
21099;SDS011;10708;50.824;4.408;2022-10-15T02:50:39;38.55;;;16.98;;
21099;SDS011;10708;50.824;4.408;2022-10-15T02:55:42;34.78;;;17.45;;
21099;SDS011;10708;50.824;4.408;2022-10-15T03:00:45;36.60;;;16.58;;
21099;SDS011;10708;50.824;4.408;2022-10-15T03:05:48;36.58;;;16.48;;
21099;SDS011;10708;50.824;4.408;2022-10-15T03:10:51;35.30;;;17.02;;
21099;SDS011;10708;50.824;4.408;2022-10-15T03:15:53;34.92;;;16.90;;
21099;SDS011;10708;50.824;4.408;2022-10-15T03:20:56;33.53;;;15.82;;
21099;SDS011;10708;50.824;4.408;2022-10-15T03:25:59;32.60;;;16.23;;
21099;SDS011;10708;50.824;4.408;2022-10-15T03:31:02;32.85;;;15.82;;
21099;SDS011;10708;50.824;4.408;2022-10-15T03:36:06;32.40;;;16.02;;
21099;SDS011;10708;50.824;4.408;2022-10-15T03:41:10;35.83;;;17.25;;
21099;SDS011;10708;50.824;4.408;2022-10-15T03:46:13;38.13;;;17.75;;
21099;SDS011;10708;50.824;4.408;2022-10-15T03:51:16;37.45;;;17.88;;
21099;SDS011;10708;50.824;4.408;2022-10-15T03:56:19;33.20;;;15.63;;
21099;SDS011;10708;50.824;4.408;2022-10-15T04:01:21;31.23;;;14.77;;
21099;SDS011;10708;50.824;4.408;2022-10-15T04:06:25;34.03;;;15.35;;
21099;SDS011;10708;50.824;4.408;2022-10-15T04:11:27;28.85;;;14.10;;
21099;SDS011;10708;50.824;4.408;2022-10-15T04:16:29;27.33;;;13.15;;
21099;SDS011;10708;50.824;4.408;2022-10-15T04:21:33;23.42;;;12.27;;
21099;SDS011;10708;50.824;4.408;2022-10-15T04:26:35;26.88;;;12.15;;
21099;SDS011;10708;50.824;4.408;2022-10-15T04:31:38;28.73;;;11.93;;
21099;SDS011;10708;50.824;4.408;2022-10-15T04:36:42;25.83;;;11.52;;
21099;SDS011;10708;50.824;4.408;2022-10-15T04:41:44;141.75;;;34.78;;
21099;SDS011;10708;50.824;4.408;2022-10-15T04:46:46;26.17;;;11.48;;
21099;SDS011;10708;50.824;4.408;2022-10-15T04:51:50;25.85;;;11.20;;
21099;SDS011;10708;50.824;4.408;2022-10-15T04:56:53;22.25;;;9.57;;
21099;SDS011;10708;50.824;4.408;2022-10-15T05:01:55;25.08;;;10.45;;
21099;SDS011;10708;50.824;4.408;2022-10-15T05:07:02;26.42;;;9.63;;
21099;SDS011;10708;50.824;4.408;2022-10-15T05:12:04;25.30;;;10.10;;
21099;SDS011;10708;50.824;4.408;2022-10-15T05:17:09;21.38;;;8.52;;
21099;SDS011;10708;50.824;4.408;2022-10-15T05:22:13;21.67;;;8.68;;
21099;SDS011;10708;50.824;4.408;2022-10-15T05:27:15;18.20;;;7.53;;
21099;SDS011;10708;50.824;4.408;2022-10-15T05:32:17;20.20;;;8.32;;
21099;SDS011;10708;50.824;4.408;2022-10-15T05:37:21;17.08;;;7.88;;
21099;SDS011;10708;50.824;4.408;2022-10-15T05:42:26;20.08;;;8.00;;
21099;SDS011;10708;50.824;4.408;2022-10-15T05:47:28;16.67;;;7.28;;
21099;SDS011;10708;50.824;4.408;2022-10-15T05:52:32;17.02;;;7.25;;
21099;SDS011;10708;50.824;4.408;2022-10-15T05:57:34;15.52;;;6.28;;
21099;SDS011;10708;50.824;4.408;2022-10-15T06:02:36;16.35;;;6.75;;
21099;SDS011;10708;50.824;4.408;2022-10-15T06:07:40;17.95;;;7.07;;
21099;SDS011;10708;50.824;4.408;2022-10-15T06:12:46;16.30;;;6.75;;
21099;SDS011;10708;50.824;4.408;2022-10-15T06:17:50;15.30;;;6.60;;
21099;SDS011;10708;50.824;4.408;2022-10-15T06:22:58;17.17;;;6.88;;
21099;SDS011;10708;50.824;4.408;2022-10-15T06:28:01;28.48;;;10.38;;
21099;SDS011;10708;50.824;4.408;2022-10-15T06:33:04;24.73;;;8.30;;
21099;SDS011;10708;50.824;4.408;2022-10-15T06:38:08;24.92;;;9.07;;
21099;SDS011;10708;50.824;4.408;2022-10-15T06:43:11;14.60;;;6.50;;
21099;SDS011;10708;50.824;4.408;2022-10-15T06:48:14;16.08;;;6.75;;
21099;SDS011;10708;50.824;4.408;2022-10-15T06:53:20;14.80;;;6.18;;
21099;SDS011;10708;50.824;4.408;2022-10-15T06:58:24;14.57;;;6.28;;
21099;SDS011;10708;50.824;4.408;2022-10-15T07:03:34;11.10;;;5.13;;
21099;SDS011;10708;50.824;4.408;2022-10-15T07:08:39;12.20;;;5.70;;
21099;SDS011;10708;50.824;4.408;2022-10-15T07:13:42;13.10;;;5.53;;
21099;SDS011;10708;50.824;4.408;2022-10-15T07:18:46;11.25;;;5.47;;
21099;SDS011;10708;50.824;4.408;2022-10-15T07:23:50;11.07;;;5.50;;
21099;SDS011;10708;50.824;4.408;2022-10-15T07:28:52;10.80;;;5.32;;
21099;SDS011;10708;50.824;4.408;2022-10-15T07:33:55;10.30;;;4.97;;
21099;SDS011;10708;50.824;4.408;2022-10-15T07:38:58;8.60;;;4.40;;
21099;SDS011;10708;50.824;4.408;2022-10-15T07:44:01;10.70;;;4.97;;
21099;SDS011;10708;50.824;4.408;2022-10-15T07:49:03;8.75;;;4.60;;
21099;SDS011;10708;50.824;4.408;2022-10-15T07:54:07;9.48;;;4.60;;
21099;SDS011;10708;50.824;4.408;2022-10-15T07:59:09;6.53;;;3.35;;
21099;SDS011;10708;50.824;4.408;2022-10-15T08:04:11;6.55;;;3.55;;
21099;SDS011;10708;50.824;4.408;2022-10-15T08:09:15;5.00;;;2.80;;
21099;SDS011;10708;50.824;4.408;2022-10-15T08:14:17;4.55;;;2.55;;
21099;SDS011;10708;50.824;4.408;2022-10-15T08:19:20;3.50;;;2.13;;
21099;SDS011;10708;50.824;4.408;2022-10-15T08:24:26;3.40;;;2.05;;
21099;SDS011;10708;50.824;4.408;2022-10-15T08:29:29;4.47;;;2.00;;
21099;SDS011;10708;50.824;4.408;2022-10-15T08:34:31;3.33;;;1.50;;
21099;SDS011;10708;50.824;4.408;2022-10-15T08:39:36;3.53;;;2.00;;
21099;SDS011;10708;50.824;4.408;2022-10-15T08:44:39;2.90;;;1.20;;
21099;SDS011;10708;50.824;4.408;2022-10-15T08:49:46;2.92;;;1.35;;
21099;SDS011;10708;50.824;4.408;2022-10-15T08:54:57;1.65;;;1.05;;
21099;SDS011;10708;50.824;4.408;2022-10-15T09:00:03;5.10;;;2.33;;
21099;SDS011;10708;50.824;4.408;2022-10-15T09:05:18;13.23;;;4.78;;
21099;SDS011;10708;50.824;4.408;2022-10-15T09:10:30;1.63;;;1.25;;
21099;SDS011;10708;50.824;4.408;2022-10-15T09:15:43;2.38;;;1.73;;
21099;SDS011;10708;50.824;4.408;2022-10-15T09:20:51;1.23;;;0.80;;
21099;SDS011;10708;50.824;4.408;2022-10-15T09:25:57;1.20;;;1.00;;
21099;SDS011;10708;50.824;4.408;2022-10-15T09:31:06;1.42;;;0.93;;
21099;SDS011;10708;50.824;4.408;2022-10-15T09:36:14;1.30;;;0.80;;
21099;SDS011;10708;50.824;4.408;2022-10-15T09:41:26;1.23;;;1.13;;
21099;SDS011;10708;50.824;4.408;2022-10-15T09:46:42;1.33;;;1.20;;
21099;SDS011;10708;50.824;4.408;2022-10-15T09:51:47;5.10;;;2.28;;
21099;SDS011;10708;50.824;4.408;2022-10-15T09:57:00;2.20;;;1.30;;
21099;SDS011;10708;50.824;4.408;2022-10-15T10:02:03;2.30;;;1.63;;
21099;SDS011;10708;50.824;4.408;2022-10-15T10:07:27;2.28;;;1.40;;
21099;SDS011;10708;50.824;4.408;2022-10-15T10:12:34;2.67;;;1.30;;
21099;SDS011;10708;50.824;4.408;2022-10-15T10:17:38;1.75;;;1.30;;
21099;SDS011;10708;50.824;4.408;2022-10-15T10:22:53;2.17;;;1.20;;
21099;SDS011;10708;50.824;4.408;2022-10-15T10:27:58;2.65;;;2.00;;
21099;SDS011;10708;50.824;4.408;2022-10-15T10:33:09;1.70;;;1.40;;
21099;SDS011;10708;50.824;4.408;2022-10-15T10:38:19;3.22;;;1.70;;
21099;SDS011;10708;50.824;4.408;2022-10-15T10:43:25;1.67;;;1.50;;
21099;SDS011;10708;50.824;4.408;2022-10-15T10:48:36;1.42;;;1.33;;
21099;SDS011;10708;50.824;4.408;2022-10-15T10:53:44;1.38;;;1.27;;
21099;SDS011;10708;50.824;4.408;2022-10-15T10:58:52;1.23;;;1.13;;
21099;SDS011;10708;50.824;4.408;2022-10-15T11:03:58;2.15;;;1.50;;
21099;SDS011;10708;50.824;4.408;2022-10-15T11:09:03;1.50;;;1.40;;
21099;SDS011;10708;50.824;4.408;2022-10-15T11:14:17;1.38;;;1.27;;
21099;SDS011;10708;50.824;4.408;2022-10-15T11:19:27;2.60;;;1.88;;
21099;SDS011;10708;50.824;4.408;2022-10-15T11:24:41;2.30;;;1.60;;
21099;SDS011;10708;50.824;4.408;2022-10-15T11:29:54;1.80;;;1.50;;
21099;SDS011;10708;50.824;4.408;2022-10-15T11:35:12;1.88;;;1.67;;
21099;SDS011;10708;50.824;4.408;2022-10-15T11:40:29;3.45;;;1.52;;
21099;SDS011;10708;50.824;4.408;2022-10-15T11:46:01;2.75;;;1.52;;
21099;SDS011;10708;50.824;4.408;2022-10-15T11:51:11;1.75;;;1.60;;
21099;SDS011;10708;50.824;4.408;2022-10-15T11:56:22;1.50;;;1.38;;
21099;SDS011;10708;50.824;4.408;2022-10-15T12:01:32;2.38;;;1.10;;
21099;SDS011;10708;50.824;4.408;2022-10-15T12:06:41;1.90;;;1.23;;
21099;SDS011;10708;50.824;4.408;2022-10-15T12:11:52;1.40;;;1.30;;
21099;SDS011;10708;50.824;4.408;2022-10-15T12:17:06;2.90;;;1.60;;
21099;SDS011;10708;50.824;4.408;2022-10-15T12:22:31;2.67;;;1.80;;
21099;SDS011;10708;50.824;4.408;2022-10-15T12:27:35;2.50;;;1.50;;
21099;SDS011;10708;50.824;4.408;2022-10-15T12:32:42;2.47;;;0.90;;
21099;SDS011;10708;50.824;4.408;2022-10-15T12:37:48;3.50;;;0.82;;
21099;SDS011;10708;50.824;4.408;2022-10-15T12:42:52;2.45;;;0.43;;
21099;SDS011;10708;50.824;4.408;2022-10-15T12:53:28;1.70;;;0.55;;
21099;SDS011;10708;50.824;4.408;2022-10-15T12:58:36;0.95;;;0.40;;
21099;SDS011;10708;50.824;4.408;2022-10-15T13:19:36;1.20;;;0.50;;
21099;SDS011;10708;50.824;4.408;2022-10-15T13:24:41;1.77;;;0.60;;
21099;SDS011;10708;50.824;4.408;2022-10-15T13:29:55;1.67;;;0.50;;
21099;SDS011;10708;50.824;4.408;2022-10-15T13:35:01;3.53;;;0.60;;
21099;SDS011;10708;50.824;4.408;2022-10-15T13:40:17;1.85;;;0.80;;
21099;SDS011;10708;50.824;4.408;2022-10-15T13:45:24;1.65;;;0.60;;
21099;SDS011;10708;50.824;4.408;2022-10-15T13:50:28;1.48;;;0.60;;
21099;SDS011;10708;50.824;4.408;2022-10-15T13:55:32;2.97;;;0.70;;
21099;SDS011;10708;50.824;4.408;2022-10-15T14:00:48;3.35;;;0.60;;
21099;SDS011;10708;50.824;4.408;2022-10-15T14:06:07;2.90;;;0.90;;
21099;SDS011;10708;50.824;4.408;2022-10-15T14:11:13;1.10;;;0.50;;
21099;SDS011;10708;50.824;4.408;2022-10-15T14:16:19;2.72;;;0.70;;
21099;SDS011;10708;50.824;4.408;2022-10-15T14:21:26;11.73;;;3.72;;
21099;SDS011;10708;50.824;4.408;2022-10-15T14:26:32;3.78;;;0.82;;
21099;SDS011;10708;50.824;4.408;2022-10-15T14:31:39;2.92;;;0.82;;
21099;SDS011;10708;50.824;4.408;2022-10-15T14:36:44;3.97;;;0.55;;
21099;SDS011;10708;50.824;4.408;2022-10-15T14:41:53;0.75;;;0.30;;
21099;SDS011;10708;50.824;4.408;2022-10-15T14:46:58;2.15;;;0.40;;
21099;SDS011;10708;50.824;4.408;2022-10-15T14:52:05;4.82;;;1.08;;
21099;SDS011;10708;50.824;4.408;2022-10-15T14:57:15;2.75;;;0.63;;
21099;SDS011;10708;50.824;4.408;2022-10-15T15:02:21;2.75;;;0.60;;
21099;SDS011;10708;50.824;4.408;2022-10-15T15:07:28;4.80;;;0.90;;
21099;SDS011;10708;50.824;4.408;2022-10-15T15:12:31;4.22;;;0.75;;
21099;SDS011;10708;50.824;4.408;2022-10-15T15:17:34;1.42;;;0.52;;
21099;SDS011;10708;50.824;4.408;2022-10-15T15:22:38;4.32;;;0.85;;
21099;SDS011;10708;50.824;4.408;2022-10-15T15:27:42;4.88;;;0.90;;
21099;SDS011;10708;50.824;4.408;2022-10-15T15:32:44;1.95;;;0.45;;
21099;SDS011;10708;50.824;4.408;2022-10-15T15:38:00;4.60;;;0.65;;
21099;SDS011;10708;50.824;4.408;2022-10-15T15:43:03;3.65;;;0.80;;
21099;SDS011;10708;50.824;4.408;2022-10-15T15:48:05;4.38;;;0.80;;
21099;SDS011;10708;50.824;4.408;2022-10-15T15:53:09;6.65;;;0.80;;
21099;SDS011;10708;50.824;4.408;2022-10-15T15:58:13;4.55;;;0.90;;
21099;SDS011;10708;50.824;4.408;2022-10-15T16:03:27;2.92;;;0.60;;
21099;SDS011;10708;50.824;4.408;2022-10-15T16:08:39;3.05;;;0.80;;
21099;SDS011;10708;50.824;4.408;2022-10-15T16:19:08;1.58;;;0.80;;
21099;SDS011;10708;50.824;4.408;2022-10-15T16:24:30;2.38;;;1.00;;
21099;SDS011;10708;50.824;4.408;2022-10-15T16:29:33;2.83;;;1.00;;
21099;SDS011;10708;50.824;4.408;2022-10-15T16:34:36;4.03;;;1.10;;
21099;SDS011;10708;50.824;4.408;2022-10-15T16:39:39;6.18;;;1.00;;
21099;SDS011;10708;50.824;4.408;2022-10-15T16:44:42;6.43;;;1.27;;
21099;SDS011;10708;50.824;4.408;2022-10-15T16:49:45;3.88;;;1.10;;
21099;SDS011;10708;50.824;4.408;2022-10-15T16:54:50;3.85;;;1.33;;
21099;SDS011;10708;50.824;4.408;2022-10-15T16:59:52;4.70;;;1.10;;
21099;SDS011;10708;50.824;4.408;2022-10-15T17:05:03;3.13;;;0.90;;
21099;SDS011;10708;50.824;4.408;2022-10-15T17:10:23;4.60;;;1.20;;
21099;SDS011;10708;50.824;4.408;2022-10-15T17:15:30;2.90;;;1.25;;
21099;SDS011;10708;50.824;4.408;2022-10-15T17:20:41;3.25;;;1.00;;
21099;SDS011;10708;50.824;4.408;2022-10-15T17:25:46;4.10;;;1.05;;
21099;SDS011;10708;50.824;4.408;2022-10-15T17:30:49;2.88;;;1.02;;
21099;SDS011;10708;50.824;4.408;2022-10-15T17:35:52;4.07;;;1.05;;
21099;SDS011;10708;50.824;4.408;2022-10-15T17:40:57;3.88;;;1.08;;
21099;SDS011;10708;50.824;4.408;2022-10-15T17:46:00;36.95;;;15.75;;
21099;SDS011;10708;50.824;4.408;2022-10-15T17:51:08;16.08;;;6.68;;
21099;SDS011;10708;50.824;4.408;2022-10-15T17:56:20;5.97;;;1.45;;
21099;SDS011;10708;50.824;4.408;2022-10-15T18:01:25;472.90;;;151.30;;
21099;SDS011;10708;50.824;4.408;2022-10-15T18:06:29;516.13;;;156.90;;
21099;SDS011;10708;50.824;4.408;2022-10-15T18:11:33;452.23;;;147.67;;
21099;SDS011;10708;50.824;4.408;2022-10-15T18:16:36;5.75;;;3.03;;
21099;SDS011;10708;50.824;4.408;2022-10-15T18:21:38;4.05;;;1.75;;
21099;SDS011;10708;50.824;4.408;2022-10-15T18:26:42;4.63;;;2.47;;
21099;SDS011;10708;50.824;4.408;2022-10-15T18:36:58;7.43;;;3.00;;
21099;SDS011;10708;50.824;4.408;2022-10-15T18:42:07;6.10;;;2.90;;
21099;SDS011;10708;50.824;4.408;2022-10-15T18:47:10;4.88;;;2.35;;
21099;SDS011;10708;50.824;4.408;2022-10-15T18:57:27;9.80;;;4.93;;
21099;SDS011;10708;50.824;4.408;2022-10-15T19:02:34;5.22;;;2.80;;
21099;SDS011;10708;50.824;4.408;2022-10-15T19:07:37;6.65;;;2.78;;
21099;SDS011;10708;50.824;4.408;2022-10-15T19:12:51;9.73;;;2.78;;
21099;SDS011;10708;50.824;4.408;2022-10-15T19:17:57;3.47;;;2.20;;
21099;SDS011;10708;50.824;4.408;2022-10-15T19:22:59;6.70;;;2.85;;
21099;SDS011;10708;50.824;4.408;2022-10-15T19:28:03;6.35;;;2.20;;
21099;SDS011;10708;50.824;4.408;2022-10-15T19:33:06;5.20;;;2.20;;
21099;SDS011;10708;50.824;4.408;2022-10-15T19:38:08;6.20;;;2.15;;
21099;SDS011;10708;50.824;4.408;2022-10-15T19:43:12;4.60;;;2.47;;
21099;SDS011;10708;50.824;4.408;2022-10-15T19:48:16;7.13;;;2.53;;
21099;SDS011;10708;50.824;4.408;2022-10-15T19:53:22;4.57;;;2.15;;
21099;SDS011;10708;50.824;4.408;2022-10-15T19:58:26;4.60;;;2.35;;
21099;SDS011;10708;50.824;4.408;2022-10-15T20:03:28;10.93;;;5.63;;
21099;SDS011;10708;50.824;4.408;2022-10-15T20:08:31;3.80;;;1.90;;
21099;SDS011;10708;50.824;4.408;2022-10-15T20:13:35;6.18;;;2.03;;
21099;SDS011;10708;50.824;4.408;2022-10-15T20:18:38;6.70;;;2.53;;
21099;SDS011;10708;50.824;4.408;2022-10-15T20:23:42;3.90;;;2.15;;
21099;SDS011;10708;50.824;4.408;2022-10-15T20:28:47;3.30;;;2.15;;
21099;SDS011;10708;50.824;4.408;2022-10-15T20:33:50;4.05;;;1.95;;
21099;SDS011;10708;50.824;4.408;2022-10-15T20:38:53;6.25;;;2.10;;
21099;SDS011;10708;50.824;4.408;2022-10-15T20:43:58;5.78;;;2.20;;
21099;SDS011;10708;50.824;4.408;2022-10-15T20:49:04;6.35;;;2.20;;
21099;SDS011;10708;50.824;4.408;2022-10-15T20:54:09;4.43;;;2.28;;
21099;SDS011;10708;50.824;4.408;2022-10-15T20:59:14;6.07;;;2.58;;
21099;SDS011;10708;50.824;4.408;2022-10-15T21:04:17;266.70;;;117.68;;
21099;SDS011;10708;50.824;4.408;2022-10-15T21:09:19;6.03;;;2.30;;
21099;SDS011;10708;50.824;4.408;2022-10-15T21:14:23;5.45;;;2.00;;
21099;SDS011;10708;50.824;4.408;2022-10-15T21:19:25;5.65;;;2.78;;
21099;SDS011;10708;50.824;4.408;2022-10-15T21:24:28;3.60;;;2.20;;
21099;SDS011;10708;50.824;4.408;2022-10-15T21:29:31;3.60;;;1.95;;
21099;SDS011;10708;50.824;4.408;2022-10-15T21:34:33;5.13;;;2.20;;
21099;SDS011;10708;50.824;4.408;2022-10-15T21:39:36;5.20;;;2.28;;
21099;SDS011;10708;50.824;4.408;2022-10-15T21:44:39;5.32;;;2.00;;
21099;SDS011;10708;50.824;4.408;2022-10-15T21:49:42;6.20;;;2.10;;
21099;SDS011;10708;50.824;4.408;2022-10-15T21:54:45;4.05;;;2.03;;
21099;SDS011;10708;50.824;4.408;2022-10-15T21:59:49;4.38;;;2.13;;
21099;SDS011;10708;50.824;4.408;2022-10-15T22:04:51;3.08;;;2.03;;
21099;SDS011;10708;50.824;4.408;2022-10-15T22:09:54;2.50;;;1.83;;
21099;SDS011;10708;50.824;4.408;2022-10-15T22:14:57;4.22;;;1.83;;
21099;SDS011;10708;50.824;4.408;2022-10-15T22:20:00;1.80;;;1.50;;
21099;SDS011;10708;50.824;4.408;2022-10-15T22:25:02;2.78;;;1.80;;
21099;SDS011;10708;50.824;4.408;2022-10-15T22:30:06;4.50;;;1.40;;
21099;SDS011;10708;50.824;4.408;2022-10-15T22:35:09;3.00;;;1.40;;
21099;SDS011;10708;50.824;4.408;2022-10-15T22:40:12;2.55;;;1.23;;
21099;SDS011;10708;50.824;4.408;2022-10-15T22:45:15;5.20;;;1.15;;
21099;SDS011;10708;50.824;4.408;2022-10-15T22:50:18;1.38;;;1.00;;
21099;SDS011;10708;50.824;4.408;2022-10-15T22:55:20;2.30;;;1.10;;
21099;SDS011;10708;50.824;4.408;2022-10-15T23:00:23;0.90;;;0.68;;
21099;SDS011;10708;50.824;4.408;2022-10-15T23:05:27;5.57;;;1.23;;
21099;SDS011;10708;50.824;4.408;2022-10-15T23:10:29;4.82;;;0.80;;
21099;SDS011;10708;50.824;4.408;2022-10-15T23:15:33;1.50;;;0.60;;
21099;SDS011;10708;50.824;4.408;2022-10-15T23:20:35;2.17;;;0.80;;
21099;SDS011;10708;50.824;4.408;2022-10-15T23:25:38;2.40;;;0.60;;
21099;SDS011;10708;50.824;4.408;2022-10-15T23:30:43;1.58;;;0.70;;
21099;SDS011;10708;50.824;4.408;2022-10-15T23:35:54;1.77;;;0.70;;
21099;SDS011;10708;50.824;4.408;2022-10-15T23:40:58;2.55;;;0.80;;
21099;SDS011;10708;50.824;4.408;2022-10-15T23:46:03;1.92;;;1.00;;
21099;SDS011;10708;50.824;4.408;2022-10-15T23:51:11;2.50;;;1.20;;
21099;SDS011;10708;50.824;4.408;2022-10-15T23:56:15;333.60;;;119.20;;
